Time;durP1;ratioP1;P1;durP2;ratioP2;P2;SDS_P1;SDS_P2;PMS_P1;PMS_P2;Temp;Humidity;BMP_temperature;BMP_pressure;BME280_temperature;BME280_humidity;BME280_pressure;Samples;Min_cycle;Max_cycle;Signal;HPM_P1;HPM_P2
2022/01/07 00:01:26;;;;;;;3.63;3.40;;;;;;;0.14;90.13;98178.69;6152904;23;20104;-77
2022/01/07 00:03:52;;;;;;;4.00;3.70;;;;;;;0.12;90.07;98191.59;6127536;23;20076;-79
2022/01/07 00:06:21;;;;;;;4.57;4.28;;;;;;;0.10;90.21;98183.09;6154166;23;20045;-79
2022/01/07 00:08:47;;;;;;;3.28;3.03;;;;;;;0.08;89.56;98191.75;6127689;23;20021;-80
2022/01/07 00:11:13;;;;;;;5.05;4.65;;;;;;;0.06;89.80;98178.19;6128398;23;20022;-78
2022/01/07 00:13:39;;;;;;;5.07;4.65;;;;;;;0.06;89.25;98185.88;6127516;23;20522;-80
2022/01/07 00:16:05;;;;;;;3.40;3.05;;;;;;;0.05;89.17;98174.78;6127793;23;20017;-79
2022/01/07 00:18:32;;;;;;;5.43;4.93;;;;;;;-0.05;89.26;98170.91;6103803;23;20357;-78
2022/01/07 00:20:58;;;;;;;6.43;4.00;;;;;;;-0.06;88.89;98175.19;6153876;23;20037;-79
2022/01/07 00:23:24;;;;;;;4.32;3.92;;;;;;;-0.02;87.12;98178.47;6127659;23;20013;-79
2022/01/07 00:25:50;;;;;;;4.13;3.83;;;;;;;-0.01;86.85;98186.13;6127538;23;20502;-79
2022/01/07 00:28:17;;;;;;;3.72;3.40;;;;;;;-0.12;87.33;98190.81;6128186;23;20024;-80
2022/01/07 00:30:43;;;;;;;3.45;2.72;;;;;;;-0.13;87.09;98189.13;6127989;23;20028;-78
2022/01/07 00:33:09;;;;;;;1.88;1.83;;;;;;;-0.12;86.71;98183.13;6127610;23;20017;-78
2022/01/07 00:35:35;;;;;;;2.83;2.63;;;;;;;-0.17;86.55;98185.06;6079568;23;20021;-80
2022/01/07 00:38:04;;;;;;;3.92;3.60;;;;;;;-0.18;85.94;98198.75;6126913;23;20021;-79
2022/01/07 00:40:30;;;;;;;2.30;2.20;;;;;;;-0.26;86.32;98187.13;6153026;23;20021;-77
2022/01/07 00:42:56;;;;;;;2.30;2.13;;;;;;;-0.23;85.25;98187.81;6102489;23;20017;-79
2022/01/07 00:45:23;;;;;;;2.60;2.40;;;;;;;-0.24;84.71;98193.88;6126716;23;20048;-78
2022/01/07 00:47:49;;;;;;;2.53;2.42;;;;;;;-0.23;84.60;98200.63;6152130;23;20017;-79
2022/01/07 00:50:16;;;;;;;2.67;2.53;;;;;;;-0.28;84.59;98200.00;6152483;23;20017;-77
2022/01/07 00:52:44;;;;;;;3.75;3.47;;;;;;;-0.40;85.24;98197.91;6152780;23;20025;-78
2022/01/07 00:55:11;;;;;;;4.28;3.90;;;;;;;-0.46;85.39;98205.81;6127561;23;20014;-77
2022/01/07 00:57:40;;;;;;;7.10;2.38;;;;;;;-0.46;85.50;98198.13;6127380;23;20021;-78
2022/01/07 01:00:09;;;;;;;2.97;2.78;;;;;;;-0.55;85.53;98216.38;6127798;23;20634;-79
2022/01/07 01:02:35;;;;;;;3.17;2.97;;;;;;;-0.63;86.03;98203.03;6154751;23;20065;-79
2022/01/07 01:05:03;;;;;;;3.30;3.10;;;;;;;-0.67;86.00;98209.16;6080779;23;20068;-79
2022/01/07 01:07:31;;;;;;;3.00;2.80;;;;;;;-0.75;85.52;98204.31;6128450;23;20014;-78
2022/01/07 01:09:57;;;;;;;3.30;2.97;;;;;;;-0.80;85.64;98195.97;6104099;23;20022;-80
2022/01/07 01:12:24;;;;;;;2.42;2.25;;;;;;;-0.83;85.92;98210.59;6103884;23;20037;-78
2022/01/07 01:14:50;;;;;;;3.75;3.03;;;;;;;-0.88;85.98;98199.72;6102310;23;20515;-78
2022/01/07 01:17:16;;;;;;;3.13;2.90;;;;;;;-0.87;85.82;98209.03;6129226;23;20073;-78
2022/01/07 01:19:42;;;;;;;3.47;3.22;;;;;;;-0.92;85.88;98213.50;6151609;23;20021;-77
2022/01/07 01:22:09;;;;;;;3.20;3.00;;;;;;;-0.97;86.04;98210.25;6152543;23;20048;-79
2022/01/07 01:24:35;;;;;;;2.53;2.35;;;;;;;-0.98;85.96;98206.03;6125561;23;20072;-78
2022/01/07 01:27:04;;;;;;;3.50;3.05;;;;;;;-1.01;85.95;98206.97;6126646;23;20057;-79
2022/01/07 01:29:31;;;;;;;3.20;3.00;;;;;;;-0.97;85.38;98210.25;6126722;23;20577;-78
2022/01/07 01:31:57;;;;;;;3.45;3.15;;;;;;;-1.01;85.14;98217.19;6127535;23;20022;-78
2022/01/07 01:34:23;;;;;;;2.60;2.40;;;;;;;-0.95;84.86;98217.00;6127276;23;20013;-78
2022/01/07 01:36:50;;;;;;;1.98;1.88;;;;;;;-0.91;84.37;98217.72;6126871;23;20025;-78
2022/01/07 01:39:16;;;;;;;2.63;2.42;;;;;;;-0.92;84.31;98221.19;6126907;23;20088;-78
2022/01/07 01:41:42;;;;;;;2.10;1.85;;;;;;;-0.93;84.32;98222.06;6126737;23;20462;-78
2022/01/07 01:44:08;;;;;;;2.42;2.33;;;;;;;-1.00;84.35;98218.88;6126639;23;20370;-78
2022/01/07 01:46:35;;;;;;;1.50;1.50;;;;;;;-0.92;83.69;98223.75;6125922;23;20024;-77
2022/01/07 01:49:01;;;;;;;1.65;1.60;;;;;;;-0.91;83.91;98222.84;6102055;23;20022;-77
2022/01/07 01:51:29;;;;;;;2.38;2.28;;;;;;;-0.94;83.85;98222.94;6077579;23;20529;-78
2022/01/07 01:53:57;;;;;;;2.10;2.00;;;;;;;-0.87;83.74;98225.25;6125298;23;20017;-77
2022/01/07 01:56:23;;;;;;;2.20;2.10;;;;;;;-0.91;84.03;98218.56;6151974;23;20021;-79
2022/01/07 01:58:49;;;;;;;2.35;2.15;;;;;;;-0.85;84.30;98226.00;6125577;23;20072;-79
2022/01/07 02:01:16;;;;;;;2.20;2.10;;;;;;;-0.88;84.29;98212.50;6126048;23;20018;-78
2022/01/07 02:03:45;;;;;;;1.65;1.65;;;;;;;-0.79;84.32;98227.53;6078851;23;20096;-76
2022/01/07 02:06:11;;;;;;;4.05;2.30;;;;;;;-0.80;83.90;98225.88;6103071;23;20022;-78
2022/01/07 02:08:39;;;;;;;1.83;1.73;;;;;;;-0.82;83.63;98227.66;6126581;23;20037;-79
2022/01/07 02:11:05;;;;;;;2.30;2.10;;;;;;;-0.84;84.14;98224.28;6103703;23;20021;-78
2022/01/07 02:13:31;;;;;;;1.65;1.58;;;;;;;-0.85;83.63;98225.22;6153242;23;20135;-77
2022/01/07 02:15:58;;;;;;;1.70;1.63;;;;;;;-0.85;83.53;98232.88;6125886;23;20091;-78
2022/01/07 02:18:24;;;;;;;2.33;2.22;;;;;;;-0.87;82.98;98229.53;6128590;23;20017;-78
2022/01/07 02:20:50;;;;;;;3.58;1.90;;;;;;;-0.86;83.00;98231.22;6078764;23;20648;-79
2022/01/07 02:23:19;;;;;;;2.30;2.20;;;;;;;-0.84;82.68;98231.97;6152759;23;20021;-78
2022/01/07 02:25:45;;;;;;;1.27;1.27;;;;;;;-0.87;82.83;98238.06;6128253;23;20027;-78
2022/01/07 02:28:12;;;;;;;2.28;2.10;;;;;;;-0.86;83.30;98244.84;6128090;23;20088;-77
2022/01/07 02:30:39;;;;;;;2.40;2.28;;;;;;;-0.85;82.88;98243.94;6154918;23;20361;-78
2022/01/07 02:33:07;;;;;;;2.17;2.08;;;;;;;-0.90;83.22;98245.00;6126448;23;20189;-78
2022/01/07 02:35:34;;;;;;;2.08;1.80;;;;;;;-0.96;81.65;98234.97;6127553;23;20371;-79
2022/01/07 02:38:00;;;;;;;1.23;1.23;;;;;;;-0.92;81.19;98246.78;6058107;23;20076;-75
2022/01/07 02:40:26;;;;;;;1.00;1.00;;;;;;;-0.92;81.05;98252.75;6104729;23;20018;-78
2022/01/07 02:42:52;;;;;;;1.80;1.70;;;;;;;-0.91;80.78;98256.13;6126869;23;20022;-77
2022/01/07 02:45:20;;;;;;;1.15;1.15;;;;;;;-0.96;80.75;98246.06;6127262;23;20025;-78
2022/01/07 02:47:52;;;;;;;1.58;1.40;;;;;;;-0.98;81.03;98252.13;6103625;23;20402;-80
2022/01/07 02:50:26;;;;;;;1.77;1.67;;;;;;;-0.98;81.07;98262.38;6129754;23;20108;-77
2022/01/07 02:52:53;;;;;;;1.85;1.20;;;;;;;-1.03;81.67;98261.69;6129463;23;20027;-77
2022/01/07 02:55:19;;;;;;;1.20;1.20;;;;;;;-1.06;81.44;98272.88;6105018;23;20121;-77
2022/01/07 02:57:45;;;;;;;1.17;1.17;;;;;;;-1.10;81.17;98269.56;6128843;23;20427;-77
2022/01/07 03:00:12;;;;;;;1.63;1.63;;;;;;;-1.11;81.05;98267.03;6105450;23;20032;-77
2022/01/07 03:02:38;;;;;;;1.38;1.27;;;;;;;-1.12;80.94;98271.34;6105296;23;20033;-80
2022/01/07 03:05:05;;;;;;;1.70;1.60;;;;;;;-1.11;81.42;98285.81;6131182;23;20029;-78
2022/01/07 03:07:31;;;;;;;1.48;1.38;;;;;;;-1.16;81.78;98280.00;6130359;23;20374;-77
2022/01/07 03:09:57;;;;;;;1.60;1.50;;;;;;;-1.12;81.86;98281.59;6106518;23;20030;-79
2022/01/07 03:12:24;;;;;;;1.83;1.73;;;;;;;-1.12;82.11;98279.03;6105385;23;20021;-79
2022/01/07 03:14:50;;;;;;;2.00;1.77;;;;;;;-1.09;81.06;98286.59;6103570;23;20071;-77
2022/01/07 03:17:16;;;;;;;1.40;1.40;;;;;;;-1.07;80.21;98289.94;6103390;23;20017;-79
2022/01/07 03:19:42;;;;;;;1.20;1.20;;;;;;;-1.11;80.04;98285.81;6127850;23;20021;-79
2022/01/07 03:22:08;;;;;;;1.48;1.48;;;;;;;-1.07;78.88;98278.84;6103214;23;20056;-78
2022/01/07 03:24:34;;;;;;;5.22;1.23;;;;;;;-1.08;78.59;98284.88;6127014;23;20451;-78
2022/01/07 03:27:01;;;;;;;0.82;0.82;;;;;;;-1.11;78.40;98285.81;6127604;23;20513;-77
2022/01/07 03:29:29;;;;;;;1.05;1.05;;;;;;;-1.13;78.58;98279.91;6103312;23;20025;-78
2022/01/07 03:31:55;;;;;;;1.15;1.15;;;;;;;-1.09;78.28;98293.44;6129503;23;20022;-78
2022/01/07 03:34:21;;;;;;;1.20;1.20;;;;;;;-1.10;77.88;98284.09;6127179;23;20018;-78
2022/01/07 03:36:47;;;;;;;1.58;1.52;;;;;;;-1.12;77.97;98284.16;6127003;23;20064;-79
2022/01/07 03:39:13;;;;;;;1.55;1.40;;;;;;;-1.12;78.40;98289.28;6152645;23;20021;-78
2022/01/07 03:41:42;;;;;;;1.67;1.58;;;;;;;-1.09;78.29;98291.72;6152639;23;20017;-78
2022/01/07 03:44:08;;;;;;;1.50;1.50;;;;;;;-1.10;78.45;98290.03;6102752;23;20410;-77
2022/01/07 03:46:34;;;;;;;1.45;1.33;;;;;;;-1.13;78.29;98289.31;6127245;23;20021;-77
2022/01/07 03:49:00;;;;;;;1.52;1.42;;;;;;;-1.16;78.45;98286.84;6127198;23;20017;-78
2022/01/07 03:51:26;;;;;;;1.60;1.50;;;;;;;-1.13;78.47;98295.28;6127536;23;20028;-78
2022/01/07 03:53:52;;;;;;;1.60;1.60;;;;;;;-1.09;78.62;98299.41;6102545;23;20022;-77
2022/01/07 03:56:20;;;;;;;1.70;1.60;;;;;;;-1.12;78.75;98293.56;6126695;23;20026;-77
2022/01/07 03:58:46;;;;;;;1.83;1.73;;;;;;;-1.12;78.36;98291.84;6126552;23;20048;-78
2022/01/07 04:01:12;;;;;;;1.58;1.48;;;;;;;-1.11;78.81;98284.97;6078939;23;20017;-77
2022/01/07 04:03:39;;;;;;;1.60;1.50;;;;;;;-1.11;79.34;98292.66;6127563;23;20032;-79
2022/01/07 04:06:05;;;;;;;1.48;1.40;;;;;;;-1.08;79.68;98290.81;6154262;23;20072;-78
2022/01/07 04:08:31;;;;;;;1.80;1.70;;;;;;;-1.06;79.43;98295.91;6103666;23;20018;-77
2022/01/07 04:10:59;;;;;;;1.23;1.23;;;;;;;-1.13;79.91;98289.31;6110046;23;20021;-77
2022/01/07 04:13:25;;;;;;;1.60;1.50;;;;;;;-1.11;79.87;98293.50;6143642;23;20014;-77
2022/01/07 04:15:51;;;;;;;1.60;1.60;;;;;;;-1.11;79.69;98297.75;6121796;23;20116;-76
2022/01/07 04:18:17;;;;;;;1.70;1.70;;;;;;;-1.12;79.85;98294.41;6169248;23;20049;-77
2022/01/07 04:20:44;;;;;;;1.92;1.83;;;;;;;-1.12;80.04;98296.94;6162944;23;20029;-77
2022/01/07 04:23:10;;;;;;;1.42;1.42;;;;;;;-1.14;80.69;98291.03;6156435;23;20365;-78
2022/01/07 04:25:36;;;;;;;1.70;1.60;;;;;;;-1.13;80.51;98300.41;6155637;23;20017;-77
2022/01/07 04:28:04;;;;;;;1.65;1.65;;;;;;;-1.16;80.87;98304.78;6153863;23;20024;-77
2022/01/07 04:30:35;;;;;;;1.83;1.77;;;;;;;-1.18;81.61;98309.94;6153100;23;20093;-78
2022/01/07 04:33:02;;;;;;;1.50;1.50;;;;;;;-1.20;81.33;98304.03;6126905;23;20120;-78
2022/01/07 04:35:28;;;;;;;1.63;1.63;;;;;;;-1.19;81.37;98315.13;6127216;23;20113;-77
2022/01/07 04:37:54;;;;;;;2.08;1.55;;;;;;;-1.25;82.14;98310.19;6126485;23;20028;-77
2022/01/07 04:40:20;;;;;;;1.65;1.65;;;;;;;-1.25;82.36;98313.59;6126346;23;20017;-77
2022/01/07 04:42:46;;;;;;;1.25;1.25;;;;;;;-1.28;82.14;98311.16;6152417;23;20454;-77
2022/01/07 04:45:13;;;;;;;1.98;1.88;;;;;;;-1.24;82.46;98314.41;6152813;23;20021;-77
2022/01/07 04:47:39;;;;;;;2.10;2.00;;;;;;;-1.21;82.80;98322.81;6125912;23;20104;-76
2022/01/07 04:50:13;;;;;;;1.60;1.50;;;;;;;-1.26;83.28;98317.03;6101905;23;20021;-78
2022/01/07 04:52:43;;;;;;;2.03;1.92;;;;;;;-1.27;83.67;98328.16;6101897;23;20040;-77
2022/01/07 04:55:11;;;;;;;2.33;2.22;;;;;;;-1.33;84.27;98312.16;6127516;23;20017;-78
2022/01/07 04:57:37;;;;;;;1.70;1.60;;;;;;;-1.39;84.46;98318.31;6126420;23;20021;-78
2022/01/07 05:00:06;;;;;;;1.67;1.58;;;;;;;-1.38;85.03;98329.38;6152090;23;20022;-78
2022/01/07 05:02:35;;;;;;;1.58;1.58;;;;;;;-1.43;85.70;98336.34;6152220;23;20045;-77
2022/01/07 05:05:04;;;;;;;1.75;1.67;;;;;;;-1.42;86.20;98344.00;6079299;23;20024;-79
2022/01/07 05:07:30;;;;;;;3.95;2.10;;;;;;;-1.45;86.37;98344.09;6151930;23;20021;-77
2022/01/07 05:09:56;;;;;;;1.60;1.60;;;;;;;-1.44;86.28;98350.06;6150712;23;20060;-76
2022/01/07 05:12:22;;;;;;;1.48;1.35;;;;;;;-1.44;82.10;98355.19;6124751;23;20358;-77
2022/01/07 05:14:48;;;;;;;1.90;1.80;;;;;;;-1.39;78.79;98359.25;6153781;23;20029;-78
2022/01/07 05:17:15;;;;;;;1.88;1.77;;;;;;;-1.41;78.48;98358.47;6154211;23;20028;-77
2022/01/07 05:19:41;;;;;;;1.40;1.40;;;;;;;-1.46;78.55;98356.91;6129114;23;20485;-78
2022/01/07 05:22:07;;;;;;;1.40;1.25;;;;;;;-1.53;77.38;98368.22;6127578;23;20017;-78
2022/01/07 05:24:33;;;;;;;1.30;1.30;;;;;;;-1.65;77.26;98362.63;6103732;23;20013;-74
2022/01/07 05:26:59;;;;;;;1.40;1.40;;;;;;;-1.66;77.84;98365.19;6105935;23;20041;-78
2022/01/07 05:29:26;;;;;;;1.30;1.30;;;;;;;-1.71;78.85;98377.31;6131239;23;20024;-78
2022/01/07 05:31:52;;;;;;;1.40;1.40;;;;;;;-1.83;79.67;98375.94;6129459;23;20021;-77
2022/01/07 05:34:18;;;;;;;1.90;1.80;;;;;;;-1.90;80.79;98371.06;6131099;23;20084;-77
2022/01/07 05:36:44;;;;;;;3.42;1.92;;;;;;;-1.88;81.74;98394.84;6083766;23;20111;-76
2022/01/07 05:39:10;;;;;;;1.40;1.40;;;;;;;-1.92;82.47;98393.25;6158551;23;20025;-80
2022/01/07 05:41:37;;;;;;;1.90;1.80;;;;;;;-2.00;83.15;98405.44;6156781;23;20022;-77
2022/01/07 05:44:03;;;;;;;2.72;1.75;;;;;;;-2.00;83.62;98400.31;6130208;23;20056;-75
2022/01/07 05:46:29;;;;;;;2.00;1.90;;;;;;;-2.02;83.89;98409.72;6106147;23;20017;-74
2022/01/07 05:48:56;;;;;;;1.67;1.58;;;;;;;-2.12;83.67;98402.31;6157142;23;20406;-75
2022/01/07 05:51:22;;;;;;;2.00;1.90;;;;;;;-2.11;83.91;98406.56;6156797;23;20362;-74
2022/01/07 05:53:48;;;;;;;3.38;2.30;;;;;;;-2.04;84.26;98414.06;6105380;23;20026;-75
2022/01/07 05:56:14;;;;;;;1.90;1.80;;;;;;;-2.01;83.70;98424.19;6155068;23;20044;-74
2022/01/07 05:58:43;;;;;;;2.08;1.98;;;;;;;-2.05;83.94;98423.44;6095281;23;20022;-75
2022/01/07 06:01:11;;;;;;;1.90;1.80;;;;;;;-1.99;82.77;98433.50;6072879;23;20029;-74
2022/01/07 06:03:38;;;;;;;2.42;2.22;;;;;;;-1.98;82.55;98431.78;6094738;23;20014;-75
2022/01/07 06:06:04;;;;;;;3.17;2.88;;;;;;;-1.97;82.70;98436.88;6047141;23;20018;-76
2022/01/07 06:08:30;;;;;;;2.45;2.35;;;;;;;-2.01;82.67;98439.53;6096484;23;20029;-74
2022/01/07 06:10:56;;;;;;;2.17;2.08;;;;;;;-2.00;81.92;98436.94;6094408;23;20057;-73
2022/01/07 06:13:23;;;;;;;2.20;2.10;;;;;;;-1.96;81.07;98435.16;6098451;23;20025;-77
2022/01/07 06:15:49;;;;;;;2.38;2.25;;;;;;;-1.95;80.77;98439.34;6073187;23;20033;-76
2022/01/07 06:18:15;;;;;;;2.58;2.20;;;;;;;-1.96;79.76;98437.72;6096478;23;20021;-75
2022/01/07 06:20:42;;;;;;;2.25;2.15;;;;;;;-1.91;78.76;98435.84;6072056;23;20041;-75
2022/01/07 06:23:08;;;;;;;2.10;2.00;;;;;;;-1.89;78.57;98439.19;6100025;23;20106;-75
2022/01/07 06:25:36;;;;;;;2.35;2.15;;;;;;;-1.87;78.38;98447.66;6099038;23;20022;-75
2022/01/07 06:28:02;;;;;;;2.35;2.25;;;;;;;-1.83;78.23;98444.16;6098706;23;20463;-76
2022/01/07 06:30:29;;;;;;;2.50;2.30;;;;;;;-1.85;78.35;98448.44;6093935;23;20076;-77
2022/01/07 06:32:55;;;;;;;2.15;1.98;;;;;;;-1.80;77.64;98450.00;6091712;23;20022;-75
2022/01/07 06:35:21;;;;;;;2.40;2.30;;;;;;;-1.78;77.58;98442.28;6095065;23;20022;-75
2022/01/07 06:37:48;;;;;;;1.88;1.77;;;;;;;-1.81;76.27;98443.22;6092414;23;20022;-75
2022/01/07 06:40:14;;;;;;;2.38;2.10;;;;;;;-1.83;76.43;98449.28;6090142;23;20022;-75
2022/01/07 06:42:40;;;;;;;4.60;3.33;;;;;;;-1.80;75.75;98454.28;6090940;23;20022;-75
2022/01/07 06:45:07;;;;;;;9.73;4.88;;;;;;;-1.88;76.56;98448.53;6091244;23;20018;-74
2022/01/07 06:47:33;;;;;;;3.53;2.03;;;;;;;-1.90;73.90;98463.09;6091472;23;20463;-74
2022/01/07 06:49:59;;;;;;;2.05;1.95;;;;;;;-1.84;73.50;98462.91;6090856;23;20023;-76
2022/01/07 06:52:25;;;;;;;4.13;2.97;;;;;;;-1.90;72.34;98466.50;6093038;23;20029;-76
2022/01/07 06:54:52;;;;;;;1.88;1.77;;;;;;;-1.90;71.78;98475.88;6092536;23;20026;-74
2022/01/07 06:57:18;;;;;;;3.05;2.20;;;;;;;-1.91;71.94;98476.75;6106032;23;20361;-74
2022/01/07 06:59:45;;;;;;;1.60;1.60;;;;;;;-1.91;72.00;98463.97;6122149;23;20029;-75
2022/01/07 07:02:11;;;;;;;2.00;1.90;;;;;;;-1.88;71.85;98469.00;6122586;23;20022;-75
2022/01/07 07:04:37;;;;;;;1.45;1.40;;;;;;;-1.88;71.61;98471.56;6123785;23;20021;-75
2022/01/07 07:07:04;;;;;;;1.95;1.80;;;;;;;-1.92;71.85;98473.34;6122228;23;20552;-76
2022/01/07 07:09:30;;;;;;;2.05;1.90;;;;;;;-1.94;72.40;98479.38;6123530;23;20370;-75
2022/01/07 07:11:56;;;;;;;1.80;1.70;;;;;;;-1.90;72.13;98493.78;6122359;23;20014;-75
2022/01/07 07:14:22;;;;;;;1.83;1.73;;;;;;;-1.99;71.98;98488.88;6123722;23;20452;-75
2022/01/07 07:16:51;;;;;;;1.98;1.88;;;;;;;-1.99;72.56;98496.56;6123826;23;20061;-75
2022/01/07 07:19:17;;;;;;;2.17;2.08;;;;;;;-1.95;72.39;98495.59;6124085;23;20026;-75
2022/01/07 07:21:43;;;;;;;2.63;2.42;;;;;;;-1.99;72.93;98509.34;6124238;23;20462;-75
2022/01/07 07:24:09;;;;;;;2.58;2.38;;;;;;;-2.00;72.85;98505.97;6122708;23;20021;-74
2022/01/07 07:26:35;;;;;;;2.10;2.00;;;;;;;-1.91;72.54;98507.44;6122255;23;20045;-74
2022/01/07 07:29:01;;;;;;;2.15;1.85;;;;;;;-1.90;72.50;98504.84;6123466;23;20028;-75
2022/01/07 07:31:28;;;;;;;1.83;1.73;;;;;;;-1.78;72.30;98519.84;6123528;23;20017;-74
2022/01/07 07:34:07;;;;;;;2.10;2.00;;;;;;;-1.87;72.70;98519.25;6123259;23;20017;-74
2022/01/07 07:36:34;;;;;;;2.20;2.00;;;;;;;-1.88;72.42;98515.03;6122472;23;20017;-74
2022/01/07 07:39:03;;;;;;;2.30;2.10;;;;;;;-1.91;72.00;98522.78;6122154;23;20021;-75
2022/01/07 07:41:29;;;;;;;2.83;2.20;;;;;;;-1.88;70.38;98520.13;6122234;23;20018;-75
2022/01/07 07:43:57;;;;;;;1.98;1.88;;;;;;;-1.82;70.16;98509.72;6123502;23;20022;-75
2022/01/07 07:46:23;;;;;;;2.38;2.28;;;;;;;-1.64;69.64;98522.03;6123387;23;20076;-75
2022/01/07 07:48:52;;;;;;;2.58;2.03;;;;;;;-1.28;68.42;98513.31;6123437;23;20021;-76
2022/01/07 07:51:18;;;;;;;3.30;3.08;;;;;;;-0.62;66.88;98522.38;6122725;23;20081;-76
2022/01/07 07:53:47;;;;;;;2.35;2.25;;;;;;;-0.30;64.51;98514.53;6122213;23;20068;-76
2022/01/07 07:56:14;;;;;;;3.03;2.47;;;;;;;-1.17;66.80;98518.94;6098817;23;20029;-76
2022/01/07 07:58:40;;;;;;;2.00;1.90;;;;;;;-1.06;67.25;98516.91;6099794;23;20025;-77
2022/01/07 08:01:06;;;;;;;1.75;1.65;;;;;;;-1.26;68.05;98529.47;6122755;23;20018;-78
2022/01/07 08:03:32;;;;;;;3.03;1.75;;;;;;;-1.83;70.08;98525.97;6124124;23;20354;-76
2022/01/07 08:05:58;;;;;;;2.30;2.10;;;;;;;-1.94;70.86;98523.69;6123235;23;20053;-76
2022/01/07 08:08:24;;;;;;;2.55;2.35;;;;;;;-1.60;69.61;98529.56;6123244;23;20096;-77
2022/01/07 08:10:57;;;;;;;3.95;2.30;;;;;;;-1.76;68.97;98527.47;6122620;23;20017;-77
2022/01/07 08:15:58;;;;;;;2.90;2.70;;;;;;;-1.96;70.63;98533.09;6123474;23;20452;-77
2022/01/07 08:16:23;;;;;;;3.00;2.80;;;;;;;-2.03;69.03;98528.22;6122347;23;20100;-76
2022/01/07 08:18:51;;;;;;;1.70;1.60;;;;;;;-2.35;70.18;98534.13;6120765;23;20114;-77
2022/01/07 08:21:17;;;;;;;2.33;2.05;;;;;;;-1.94;67.53;98538.19;6097640;23;20018;-76
2022/01/07 08:23:44;;;;;;;2.53;2.10;;;;;;;-1.90;66.42;98542.34;6123372;23;20514;-76
2022/01/07 08:26:11;;;;;;;1.45;1.33;;;;;;;-2.45;66.93;98553.94;6123167;23;20014;-77
2022/01/07 08:28:42;;;;;;;1.70;1.60;;;;;;;-2.44;66.40;98552.22;6098254;23;20097;-77
2022/01/07 08:36:25;;;;;;;2.08;1.77;;;;;;;-1.78;61.75;98570.16;6122021;23;20029;-77
2022/01/07 08:38:52;;;;;;;1.58;1.48;;;;;;;-2.11;62.53;98567.59;6122843;23;20018;-77
2022/01/07 08:41:18;;;;;;;1.88;1.77;;;;;;;-2.44;62.89;98578.63;6122953;23;20430;-77
2022/01/07 08:43:44;;;;;;;2.50;1.95;;;;;;;-2.67;63.92;98580.84;6122882;23;20045;-76
2022/01/07 08:46:10;;;;;;;2.70;1.75;;;;;;;-3.08;65.15;98591.97;6121141;23;20018;-76
2022/01/07 08:48:37;;;;;;;2.78;1.52;;;;;;;-3.00;65.70;98595.19;6123308;23;20022;-75
2022/01/07 08:51:04;;;;;;;1.50;1.48;;;;;;;-3.07;65.80;98606.38;6122947;23;20455;-76
2022/01/07 08:53:30;;;;;;;1.58;1.48;;;;;;;-3.08;65.95;98609.00;6123164;23;20022;-76
2022/01/07 08:55:56;;;;;;;1.80;1.70;;;;;;;-2.80;65.43;98603.28;6121096;23;20041;-75
2022/01/07 08:58:23;;;;;;;2.05;1.95;;;;;;;-3.00;66.45;98612.22;6121195;23;20093;-74
2022/01/07 09:00:49;;;;;;;1.33;1.33;;;;;;;-3.02;66.20;98617.38;6097379;23;20049;-74
2022/01/07 09:03:15;;;;;;;2.42;2.22;;;;;;;-2.92;66.70;98623.97;6122890;23;20018;-74
2022/01/07 09:05:41;;;;;;;1.30;1.30;;;;;;;-2.97;66.95;98632.56;6121952;23;20037;-74
2022/01/07 09:08:09;;;;;;;2.22;2.10;;;;;;;-2.92;66.93;98640.97;6121557;23;20461;-74
2022/01/07 09:10:36;;;;;;;2.42;2.22;;;;;;;-2.95;67.24;98623.19;6049370;23;20041;-74
2022/01/07 09:13:02;;;;;;;2.10;2.00;;;;;;;-3.06;68.40;98633.59;6118419;23;20454;-75
2022/01/07 09:15:28;;;;;;;1.90;1.80;;;;;;;-3.10;68.56;98637.09;6121444;23;20084;-74
2022/01/07 09:17:54;;;;;;;2.05;1.88;;;;;;;-3.30;69.54;98641.72;6125966;23;20041;-76
2022/01/07 09:20:23;;;;;;;1.98;1.88;;;;;;;-3.39;69.55;98649.56;6124456;23;20022;-75
2022/01/07 09:22:49;;;;;;;5.30;1.50;;;;;;;-3.33;70.01;98655.38;6121340;23;20105;-75
2022/01/07 09:25:15;;;;;;;1.83;1.73;;;;;;;-3.38;70.54;98634.25;6122618;23;20018;-75
2022/01/07 09:27:41;;;;;;;2.40;2.30;;;;;;;-2.97;69.68;98658.09;6121344;23;20022;-76
2022/01/07 09:30:11;;;;;;;2.05;1.95;;;;;;;-3.30;69.92;98647.69;6097136;23;20104;-76
2022/01/07 09:32:38;;;;;;;2.28;2.17;;;;;;;-3.20;69.63;98656.84;6122916;23;20018;-76
2022/01/07 09:35:05;;;;;;;2.13;2.03;;;;;;;-3.50;68.26;98670.16;6121050;23;20486;-76
2022/01/07 09:37:31;;;;;;;2.15;2.05;;;;;;;-3.46;67.61;98674.34;6123489;23;20021;-76
2022/01/07 09:40:00;;;;;;;2.05;1.95;;;;;;;-3.44;66.92;98667.53;6074556;23;20022;-76
2022/01/07 09:42:27;;;;;;;2.35;2.15;;;;;;;-3.63;65.04;98667.88;6125717;23;20029;-76
2022/01/07 09:44:53;;;;;;;1.67;1.58;;;;;;;-3.81;64.80;98672.41;6122411;23;20427;-75
2022/01/07 09:47:19;;;;;;;1.50;1.50;;;;;;;-3.82;64.82;98690.25;6122871;23;20050;-75
2022/01/07 09:49:45;;;;;;;1.80;1.70;;;;;;;-3.76;64.63;98680.81;6096773;23;20034;-75
2022/01/07 09:52:11;;;;;;;1.85;1.75;;;;;;;-3.93;63.72;98689.59;6122451;23;20024;-76
2022/01/07 09:54:38;;;;;;;1.38;1.38;;;;;;;-3.88;62.94;98691.22;6123129;23;20465;-76
2022/01/07 09:57:06;;;;;;;1.85;1.75;;;;;;;-4.07;63.19;98705.09;6122902;23;20041;-76
2022/01/07 09:59:36;;;;;;;1.33;1.33;;;;;;;-4.05;62.84;98699.97;6099028;23;20402;-76
2022/01/07 10:02:04;;;;;;;1.55;1.23;;;;;;;-4.17;63.70;98698.47;6124264;23;20065;-75
2022/01/07 10:04:33;;;;;;;2.30;2.10;;;;;;;-4.08;64.63;98715.31;6147277;23;20017;-75
2022/01/07 10:07:20;;;;;;;2.38;2.28;;;;;;;-4.06;64.63;98711.03;6124333;23;20017;-76
2022/01/07 10:10:00;;;;;;;1.83;1.83;;;;;;;-4.10;65.95;98717.03;6145393;23;20033;-75
2022/01/07 10:12:28;;;;;;;1.80;1.70;;;;;;;-4.13;65.57;98700.09;6124522;23;20040;-75
2022/01/07 10:15:27;;;;;;;2.38;2.17;;;;;;;-4.25;65.64;98705.34;6122624;23;20416;-77
2022/01/07 10:18:10;;;;;;;1.70;1.63;;;;;;;-4.22;65.22;98715.50;6111909;23;20022;-74
2022/01/07 10:20:41;;;;;;;2.28;2.17;;;;;;;-4.24;65.47;98713.00;6123351;23;20084;-76
2022/01/07 10:23:15;;;;;;;1.80;1.70;;;;;;;-4.23;65.81;98712.13;6122608;23;20072;-76
2022/01/07 10:25:43;;;;;;;2.10;2.00;;;;;;;-4.21;66.36;98718.03;6121800;23;20022;-75
2022/01/07 10:28:11;;;;;;;2.20;2.08;;;;;;;-4.31;66.77;98711.38;6124022;23;20358;-76
2022/01/07 10:30:41;;;;;;;3.63;2.17;;;;;;;-4.39;66.59;98687.75;6114257;23;20017;-77
2022/01/07 10:33:18;;;;;;;2.00;1.90;;;;;;;-4.23;66.39;98717.22;6121590;23;20045;-77
2022/01/07 10:35:44;;;;;;;3.53;2.35;;;;;;;-4.25;66.03;98713.84;6121566;23;20021;-74
2022/01/07 10:38:17;;;;;;;2.75;2.55;;;;;;;-4.26;65.90;98717.28;6123645;23;20040;-75
2022/01/07 10:40:43;;;;;;;1.67;1.60;;;;;;;-4.20;65.74;98711.25;6123699;23;20024;-77
2022/01/07 10:43:32;;;;;;;1.80;1.70;;;;;;;-4.24;65.67;98702.81;6122383;23;20473;-75
2022/01/07 10:46:00;;;;;;;1.48;1.48;;;;;;;-4.25;65.46;98711.28;6098057;23;20074;-75
2022/01/07 10:48:43;;;;;;;2.13;1.55;;;;;;;-4.24;65.90;98719.78;6122446;23;20108;-74
2022/01/07 10:51:13;;;;;;;1.73;1.65;;;;;;;-4.15;65.63;98716.25;6123675;23;20022;-75
2022/01/07 10:53:39;;;;;;;2.13;2.03;;;;;;;-4.05;65.49;98722.91;6131021;23;20018;-77
2022/01/07 10:56:15;;;;;;;1.95;1.85;;;;;;;-4.07;65.56;98709.34;6139072;23;20257;-76
2022/01/07 10:58:58;;;;;;;1.73;1.65;;;;;;;-4.09;65.51;98723.84;6137866;23;20018;-77
2022/01/07 11:01:33;;;;;;;1.65;1.55;;;;;;;-4.21;65.43;98707.84;6140793;23;20095;-76
2022/01/07 11:04:00;;;;;;;1.98;1.88;;;;;;;-4.12;64.93;98706.88;6138863;23;20025;-77
2022/01/07 11:06:26;;;;;;;1.30;1.30;;;;;;;-4.07;64.97;98706.81;6134462;23;20076;-77
2022/01/07 11:08:56;;;;;;;1.70;1.60;;;;;;;-4.02;64.33;98698.22;6097234;23;20443;-76
2022/01/07 11:11:26;;;;;;;1.98;1.88;;;;;;;-3.88;64.40;98710.75;6121694;23;20018;-76
2022/01/07 11:13:52;;;;;;;1.88;1.77;;;;;;;-3.94;64.31;98711.69;6120462;23;20025;-76
2022/01/07 11:16:19;;;;;;;2.35;2.08;;;;;;;-4.01;64.53;98706.72;6142921;23;20073;-76
2022/01/07 11:18:46;;;;;;;1.90;1.80;;;;;;;-4.04;64.88;98705.06;6118695;23;20028;-77
2022/01/07 11:21:12;;;;;;;1.85;1.75;;;;;;;-4.04;64.74;98714.41;6095668;23;20018;-77
2022/01/07 11:23:41;;;;;;;1.95;1.85;;;;;;;-4.06;65.04;98722.09;6095660;23;20022;-77
2022/01/07 11:26:08;;;;;;;1.88;1.77;;;;;;;-4.04;65.34;98702.50;6095718;23;20546;-77
2022/01/07 11:28:35;;;;;;;3.20;2.20;;;;;;;-4.05;64.94;98712.72;6119601;23;20018;-77
2022/01/07 11:31:04;;;;;;;1.63;1.52;;;;;;;-4.18;64.98;98706.13;6093986;23;20022;-78
2022/01/07 11:33:31;;;;;;;1.58;1.48;;;;;;;-4.13;65.03;98709.44;6119491;23;20018;-77
2022/01/07 11:35:57;;;;;;;1.60;1.60;;;;;;;-4.29;64.79;98704.56;6118441;23;20021;-77
2022/01/07 11:38:34;;;;;;;1.92;1.70;;;;;;;-4.11;64.89;98717.91;6121187;23;20044;-77
2022/01/07 11:41:02;;;;;;;2.65;2.30;;;;;;;-4.17;65.21;98702.72;6120553;23;20025;-77